sensor_id;sensor_type;location;lat;lon;timestamp;temperature;humidity
13354;DHT22;6746;50.892;4.064;2023-04-30T00:02:31;8.20;99.90
13354;DHT22;6746;50.892;4.064;2023-04-30T00:05:09;8.20;99.90
13354;DHT22;6746;50.892;4.064;2023-04-30T00:07:47;8.10;99.90
13354;DHT22;6746;50.892;4.064;2023-04-30T00:10:25;8.10;99.90
13354;DHT22;6746;50.892;4.064;2023-04-30T00:13:03;8.00;99.90
13354;DHT22;6746;50.892;4.064;2023-04-30T00:15:42;8.00;99.90
13354;DHT22;6746;50.892;4.064;2023-04-30T00:18:20;7.90;99.90
13354;DHT22;6746;50.892;4.064;2023-04-30T00:20:59;7.90;99.90
13354;DHT22;6746;50.892;4.064;2023-04-30T00:23:45;7.90;99.90
13354;DHT22;6746;50.892;4.064;2023-04-30T00:26:23;8.00;99.90
13354;DHT22;6746;50.892;4.064;2023-04-30T00:29:04;8.10;99.90
13354;DHT22;6746;50.892;4.064;2023-04-30T00:31:42;8.10;99.90
13354;DHT22;6746;50.892;4.064;2023-04-30T00:34:30;8.20;99.90
13354;DHT22;6746;50.892;4.064;2023-04-30T00:37:17;8.30;99.90
13354;DHT22;6746;50.892;4.064;2023-04-30T00:40:06;8.30;99.90
13354;DHT22;6746;50.892;4.064;2023-04-30T00:42:54;8.40;99.90
13354;DHT22;6746;50.892;4.064;2023-04-30T00:45:42;8.40;99.90
13354;DHT22;6746;50.892;4.064;2023-04-30T00:48:21;8.40;99.90
13354;DHT22;6746;50.892;4.064;2023-04-30T00:51:00;8.40;99.90
13354;DHT22;6746;50.892;4.064;2023-04-30T00:53:38;8.40;99.90
13354;DHT22;6746;50.892;4.064;2023-04-30T00:56:16;8.40;99.90
13354;DHT22;6746;50.892;4.064;2023-04-30T00:58:54;8.30;99.90
13354;DHT22;6746;50.892;4.064;2023-04-30T01:01:32;8.30;99.90
13354;DHT22;6746;50.892;4.064;2023-04-30T01:04:11;8.30;99.90
13354;DHT22;6746;50.892;4.064;2023-04-30T01:06:49;8.30;99.90
13354;DHT22;6746;50.892;4.064;2023-04-30T01:09:27;8.20;99.90
13354;DHT22;6746;50.892;4.064;2023-04-30T01:12:25;8.20;99.90
13354;DHT22;6746;50.892;4.064;2023-04-30T01:18:37;8.20;99.90
13354;DHT22;6746;50.892;4.064;2023-04-30T01:21:04;8.30;99.90
13354;DHT22;6746;50.892;4.064;2023-04-30T01:30:09;8.00;99.90
13354;DHT22;6746;50.892;4.064;2023-04-30T01:32:47;7.90;99.90
13354;DHT22;6746;50.892;4.064;2023-04-30T01:35:45;7.80;99.90
13354;DHT22;6746;50.892;4.064;2023-04-30T01:38:40;7.70;99.90
13354;DHT22;6746;50.892;4.064;2023-04-30T01:41:34;7.70;99.90
13354;DHT22;6746;50.892;4.064;2023-04-30T01:44:23;7.60;99.90
13354;DHT22;6746;50.892;4.064;2023-04-30T01:47:01;7.50;99.90
13354;DHT22;6746;50.892;4.064;2023-04-30T01:49:41;7.40;99.90
13354;DHT22;6746;50.892;4.064;2023-04-30T01:52:39;7.30;99.90
13354;DHT22;6746;50.892;4.064;2023-04-30T01:58:17;7.20;99.90
13354;DHT22;6746;50.892;4.064;2023-04-30T02:01:05;7.30;99.90
13354;DHT22;6746;50.892;4.064;2023-04-30T02:03:44;9.10;99.90
13354;DHT22;6746;50.892;4.064;2023-04-30T02:06:22;7.20;99.90
13354;DHT22;6746;50.892;4.064;2023-04-30T02:09:00;7.10;99.90
13354;DHT22;6746;50.892;4.064;2023-04-30T02:11:41;7.10;99.90
13354;DHT22;6746;50.892;4.064;2023-04-30T02:14:19;7.10;99.90
13354;DHT22;6746;50.892;4.064;2023-04-30T02:16:58;7.10;99.90
13354;DHT22;6746;50.892;4.064;2023-04-30T02:19:38;7.10;99.90
13354;DHT22;6746;50.892;4.064;2023-04-30T02:22:16;7.10;99.90
13354;DHT22;6746;50.892;4.064;2023-04-30T02:25:04;7.00;99.90
13354;DHT22;6746;50.892;4.064;2023-04-30T02:27:53;7.00;99.90
13354;DHT22;6746;50.892;4.064;2023-04-30T02:30:41;7.00;99.90
13354;DHT22;6746;50.892;4.064;2023-04-30T02:33:29;7.00;99.90
13354;DHT22;6746;50.892;4.064;2023-04-30T02:36:13;6.90;99.90
13354;DHT22;6746;50.892;4.064;2023-04-30T02:38:51;6.90;99.90
13354;DHT22;6746;50.892;4.064;2023-04-30T02:41:37;6.80;99.90
13354;DHT22;6746;50.892;4.064;2023-04-30T02:44:16;6.80;99.90
13354;DHT22;6746;50.892;4.064;2023-04-30T02:46:57;6.70;99.90
13354;DHT22;6746;50.892;4.064;2023-04-30T02:49:35;6.70;99.90
13354;DHT22;6746;50.892;4.064;2023-04-30T02:52:13;6.60;99.90
13354;DHT22;6746;50.892;4.064;2023-04-30T02:54:51;6.60;99.90
13354;DHT22;6746;50.892;4.064;2023-04-30T02:57:32;6.50;99.90
13354;DHT22;6746;50.892;4.064;2023-04-30T03:00:10;6.50;99.90
13354;DHT22;6746;50.892;4.064;2023-04-30T03:02:58;6.40;99.90
13354;DHT22;6746;50.892;4.064;2023-04-30T03:05:37;6.40;99.90
13354;DHT22;6746;50.892;4.064;2023-04-30T03:08:15;6.50;99.90
13354;DHT22;6746;50.892;4.064;2023-04-30T03:10:53;6.40;99.90
13354;DHT22;6746;50.892;4.064;2023-04-30T03:13:31;6.40;99.90
13354;DHT22;6746;50.892;4.064;2023-04-30T03:16:20;6.30;99.90
13354;DHT22;6746;50.892;4.064;2023-04-30T03:19:07;6.30;99.90
13354;DHT22;6746;50.892;4.064;2023-04-30T03:21:51;6.20;99.90
13354;DHT22;6746;50.892;4.064;2023-04-30T03:24:29;6.20;99.90
13354;DHT22;6746;50.892;4.064;2023-04-30T03:27:08;6.20;99.90
13354;DHT22;6746;50.892;4.064;2023-04-30T03:29:46;6.10;99.90
13354;DHT22;6746;50.892;4.064;2023-04-30T03:32:24;6.10;99.90
13354;DHT22;6746;50.892;4.064;2023-04-30T03:35:03;6.10;99.90
13354;DHT22;6746;50.892;4.064;2023-04-30T03:37:50;6.10;99.90
13354;DHT22;6746;50.892;4.064;2023-04-30T03:40:28;6.10;99.90
13354;DHT22;6746;50.892;4.064;2023-04-30T03:43:07;6.00;99.90
13354;DHT22;6746;50.892;4.064;2023-04-30T03:45:45;6.00;99.90
13354;DHT22;6746;50.892;4.064;2023-04-30T03:48:23;5.90;99.90
13354;DHT22;6746;50.892;4.064;2023-04-30T03:51:09;6.00;99.90
13354;DHT22;6746;50.892;4.064;2023-04-30T03:53:48;6.10;99.90
13354;DHT22;6746;50.892;4.064;2023-04-30T03:56:29;6.20;99.90
13354;DHT22;6746;50.892;4.064;2023-04-30T03:59:07;6.10;99.90
13354;DHT22;6746;50.892;4.064;2023-04-30T04:01:50;6.10;99.90
13354;DHT22;6746;50.892;4.064;2023-04-30T04:04:29;6.00;99.90
13354;DHT22;6746;50.892;4.064;2023-04-30T04:07:16;5.90;99.90
13354;DHT22;6746;50.892;4.064;2023-04-30T04:10:04;5.90;99.90
13354;DHT22;6746;50.892;4.064;2023-04-30T04:12:52;5.90;99.90
13354;DHT22;6746;50.892;4.064;2023-04-30T04:15:34;5.90;99.90
13354;DHT22;6746;50.892;4.064;2023-04-30T04:18:04;5.90;99.90
13354;DHT22;6746;50.892;4.064;2023-04-30T04:20:44;5.80;99.90
13354;DHT22;6746;50.892;4.064;2023-04-30T04:23:22;5.80;99.90
13354;DHT22;6746;50.892;4.064;2023-04-30T04:26:00;5.80;99.90
13354;DHT22;6746;50.892;4.064;2023-04-30T04:28:38;5.80;99.90
13354;DHT22;6746;50.892;4.064;2023-04-30T04:31:16;5.80;99.90
13354;DHT22;6746;50.892;4.064;2023-04-30T04:33:55;5.90;99.90
13354;DHT22;6746;50.892;4.064;2023-04-30T04:36:32;5.90;99.90
13354;DHT22;6746;50.892;4.064;2023-04-30T04:39:09;5.90;99.90
13354;DHT22;6746;50.892;4.064;2023-04-30T04:41:38;5.90;99.90
13354;DHT22;6746;50.892;4.064;2023-04-30T04:44:16;5.90;99.90
13354;DHT22;6746;50.892;4.064;2023-04-30T04:46:54;6.00;99.90
13354;DHT22;6746;50.892;4.064;2023-04-30T04:49:32;6.10;99.90
13354;DHT22;6746;50.892;4.064;2023-04-30T04:52:06;6.10;99.90
13354;DHT22;6746;50.892;4.064;2023-04-30T04:54:35;6.20;99.90
13354;DHT22;6746;50.892;4.064;2023-04-30T04:57:13;6.30;99.90
13354;DHT22;6746;50.892;4.064;2023-04-30T04:59:51;6.40;99.90
13354;DHT22;6746;50.892;4.064;2023-04-30T05:02:29;6.50;99.90
13354;DHT22;6746;50.892;4.064;2023-04-30T05:05:08;6.60;99.90
13354;DHT22;6746;50.892;4.064;2023-04-30T05:07:46;6.70;99.90
13354;DHT22;6746;50.892;4.064;2023-04-30T05:10:24;6.80;99.90
13354;DHT22;6746;50.892;4.064;2023-04-30T05:13:02;6.90;99.90
13354;DHT22;6746;50.892;4.064;2023-04-30T05:15:40;7.00;99.90
13354;DHT22;6746;50.892;4.064;2023-04-30T05:18:28;7.10;99.90
13354;DHT22;6746;50.892;4.064;2023-04-30T05:21:04;7.20;99.90
13354;DHT22;6746;50.892;4.064;2023-04-30T05:23:33;7.30;99.90
13354;DHT22;6746;50.892;4.064;2023-04-30T05:26:11;7.50;99.90
13354;DHT22;6746;50.892;4.064;2023-04-30T05:28:45;7.60;99.90
13354;DHT22;6746;50.892;4.064;2023-04-30T05:31:14;7.80;99.90
13354;DHT22;6746;50.892;4.064;2023-04-30T05:33:48;8.00;99.90
13354;DHT22;6746;50.892;4.064;2023-04-30T05:36:16;8.10;99.90
13354;DHT22;6746;50.892;4.064;2023-04-30T05:38:56;8.30;99.90
13354;DHT22;6746;50.892;4.064;2023-04-30T05:41:24;8.40;99.90
13354;DHT22;6746;50.892;4.064;2023-04-30T05:44:01;8.60;99.90
13354;DHT22;6746;50.892;4.064;2023-04-30T05:46:30;8.60;99.90
13354;DHT22;6746;50.892;4.064;2023-04-30T05:49:08;8.80;99.90
13354;DHT22;6746;50.892;4.064;2023-04-30T05:51:46;8.90;99.90
13354;DHT22;6746;50.892;4.064;2023-04-30T05:54:24;9.10;99.90
13354;DHT22;6746;50.892;4.064;2023-04-30T05:57:03;9.20;99.90
13354;DHT22;6746;50.892;4.064;2023-04-30T05:59:51;9.30;99.90
13354;DHT22;6746;50.892;4.064;2023-04-30T06:02:29;9.50;99.90
13354;DHT22;6746;50.892;4.064;2023-04-30T06:05:07;9.60;99.90
13354;DHT22;6746;50.892;4.064;2023-04-30T06:07:38;9.80;99.90
13354;DHT22;6746;50.892;4.064;2023-04-30T06:10:07;9.90;99.90
13354;DHT22;6746;50.892;4.064;2023-04-30T06:12:46;10.00;99.90
13354;DHT22;6746;50.892;4.064;2023-04-30T06:15:24;10.00;99.90
13354;DHT22;6746;50.892;4.064;2023-04-30T06:18:02;10.30;99.90
13354;DHT22;6746;50.892;4.064;2023-04-30T06:20:40;10.40;99.90
13354;DHT22;6746;50.892;4.064;2023-04-30T06:23:28;10.60;99.90
13354;DHT22;6746;50.892;4.064;2023-04-30T06:26:06;10.70;99.90
13354;DHT22;6746;50.892;4.064;2023-04-30T06:28:44;11.00;99.90
13354;DHT22;6746;50.892;4.064;2023-04-30T06:31:23;11.00;99.90
13354;DHT22;6746;50.892;4.064;2023-04-30T06:34:01;11.30;99.90
13354;DHT22;6746;50.892;4.064;2023-04-30T06:36:39;11.30;99.90
13354;DHT22;6746;50.892;4.064;2023-04-30T06:39:15;11.30;99.90
13354;DHT22;6746;50.892;4.064;2023-04-30T06:41:44;11.40;99.90
13354;DHT22;6746;50.892;4.064;2023-04-30T06:44:15;11.50;99.90
13354;DHT22;6746;50.892;4.064;2023-04-30T06:46:44;11.80;99.90
13354;DHT22;6746;50.892;4.064;2023-04-30T06:49:12;11.90;99.90
13354;DHT22;6746;50.892;4.064;2023-04-30T06:51:41;12.20;99.90
13354;DHT22;6746;50.892;4.064;2023-04-30T06:54:12;12.30;99.90
13354;DHT22;6746;50.892;4.064;2023-04-30T06:56:40;12.60;99.90
13354;DHT22;6746;50.892;4.064;2023-04-30T06:59:18;12.80;99.90
13354;DHT22;6746;50.892;4.064;2023-04-30T07:01:52;13.30;99.90
13354;DHT22;6746;50.892;4.064;2023-04-30T07:04:21;13.50;99.90
13354;DHT22;6746;50.892;4.064;2023-04-30T07:06:51;13.50;99.90
13354;DHT22;6746;50.892;4.064;2023-04-30T07:09:22;13.70;99.90
13354;DHT22;6746;50.892;4.064;2023-04-30T07:11:56;13.80;99.90
13354;DHT22;6746;50.892;4.064;2023-04-30T07:14:29;13.90;99.90
13354;DHT22;6746;50.892;4.064;2023-04-30T07:17:05;14.00;99.90
13354;DHT22;6746;50.892;4.064;2023-04-30T07:19:36;14.20;99.90
13354;DHT22;6746;50.892;4.064;2023-04-30T07:22:07;14.50;99.90
13354;DHT22;6746;50.892;4.064;2023-04-30T07:24:36;14.50;99.90
13354;DHT22;6746;50.892;4.064;2023-04-30T07:27:10;14.50;99.90
13354;DHT22;6746;50.892;4.064;2023-04-30T07:29:39;14.40;99.90
13354;DHT22;6746;50.892;4.064;2023-04-30T07:32:13;14.60;99.90
13354;DHT22;6746;50.892;4.064;2023-04-30T07:34:42;14.60;99.90
13354;DHT22;6746;50.892;4.064;2023-04-30T07:37:13;14.90;99.90
13354;DHT22;6746;50.892;4.064;2023-04-30T07:39:45;15.10;99.90
13354;DHT22;6746;50.892;4.064;2023-04-30T07:42:22;15.30;99.90
13354;DHT22;6746;50.892;4.064;2023-04-30T07:44:51;15.30;99.90
13354;DHT22;6746;50.892;4.064;2023-04-30T07:47:29;15.40;99.90
13354;DHT22;6746;50.892;4.064;2023-04-30T07:50:01;15.50;99.90
13354;DHT22;6746;50.892;4.064;2023-04-30T07:52:31;15.70;99.90
13354;DHT22;6746;50.892;4.064;2023-04-30T07:55:05;15.90;99.90
13354;DHT22;6746;50.892;4.064;2023-04-30T07:57:34;16.10;99.90
13354;DHT22;6746;50.892;4.064;2023-04-30T08:00:13;16.30;99.90
13354;DHT22;6746;50.892;4.064;2023-04-30T08:02:44;16.40;99.90
13354;DHT22;6746;50.892;4.064;2023-04-30T08:05:13;16.40;99.90
13354;DHT22;6746;50.892;4.064;2023-04-30T08:07:51;16.40;99.90
13354;DHT22;6746;50.892;4.064;2023-04-30T08:10:30;16.40;99.90
13354;DHT22;6746;50.892;4.064;2023-04-30T08:13:08;16.50;99.90
13354;DHT22;6746;50.892;4.064;2023-04-30T08:15:46;16.80;99.90
13354;DHT22;6746;50.892;4.064;2023-04-30T08:18:24;17.00;99.90
13354;DHT22;6746;50.892;4.064;2023-04-30T08:20:55;16.80;99.90
13354;DHT22;6746;50.892;4.064;2023-04-30T08:23:26;16.70;99.90
13354;DHT22;6746;50.892;4.064;2023-04-30T08:26:05;16.80;99.90
13354;DHT22;6746;50.892;4.064;2023-04-30T08:28:34;16.70;99.90
13354;DHT22;6746;50.892;4.064;2023-04-30T08:31:03;16.90;99.90
13354;DHT22;6746;50.892;4.064;2023-04-30T08:33:34;17.20;99.90
13354;DHT22;6746;50.892;4.064;2023-04-30T08:36:03;17.30;99.90
13354;DHT22;6746;50.892;4.064;2023-04-30T08:38:33;17.80;99.90
13354;DHT22;6746;50.892;4.064;2023-04-30T08:41:11;17.70;99.90
13354;DHT22;6746;50.892;4.064;2023-04-30T08:43:39;17.60;99.90
13354;DHT22;6746;50.892;4.064;2023-04-30T08:46:10;17.50;99.90
13354;DHT22;6746;50.892;4.064;2023-04-30T08:48:48;17.60;99.90
13354;DHT22;6746;50.892;4.064;2023-04-30T08:51:28;17.70;99.90
13354;DHT22;6746;50.892;4.064;2023-04-30T08:53:58;18.00;99.90
13354;DHT22;6746;50.892;4.064;2023-04-30T08:56:27;17.80;99.90
13354;DHT22;6746;50.892;4.064;2023-04-30T08:58:58;17.70;99.90
13354;DHT22;6746;50.892;4.064;2023-04-30T09:01:28;18.20;99.90
13354;DHT22;6746;50.892;4.064;2023-04-30T09:03:58;18.30;99.90
13354;DHT22;6746;50.892;4.064;2023-04-30T09:06:29;18.50;99.90
13354;DHT22;6746;50.892;4.064;2023-04-30T09:09:13;18.50;99.90
13354;DHT22;6746;50.892;4.064;2023-04-30T09:11:41;18.50;99.90
13354;DHT22;6746;50.892;4.064;2023-04-30T09:14:28;18.50;99.90
13354;DHT22;6746;50.892;4.064;2023-04-30T09:16:53;18.50;99.90
13354;DHT22;6746;50.892;4.064;2023-04-30T09:19:32;18.30;99.90
13354;DHT22;6746;50.892;4.064;2023-04-30T09:22:17;18.30;99.90
13354;DHT22;6746;50.892;4.064;2023-04-30T09:24:45;18.40;99.90
13354;DHT22;6746;50.892;4.064;2023-04-30T09:27:19;18.50;99.90
13354;DHT22;6746;50.892;4.064;2023-04-30T09:29:47;18.60;99.90
13354;DHT22;6746;50.892;4.064;2023-04-30T09:32:25;18.40;99.90
13354;DHT22;6746;50.892;4.064;2023-04-30T09:34:57;18.30;99.90
13354;DHT22;6746;50.892;4.064;2023-04-30T09:37:37;18.30;99.90
13354;DHT22;6746;50.892;4.064;2023-04-30T09:40:06;18.30;99.90
13354;DHT22;6746;50.892;4.064;2023-04-30T09:42:35;18.30;99.90
13354;DHT22;6746;50.892;4.064;2023-04-30T09:45:14;18.30;99.90
13354;DHT22;6746;50.892;4.064;2023-04-30T09:47:52;18.30;99.90
13354;DHT22;6746;50.892;4.064;2023-04-30T09:50:36;18.20;99.90
13354;DHT22;6746;50.892;4.064;2023-04-30T09:53:09;18.20;99.90
13354;DHT22;6746;50.892;4.064;2023-04-30T09:55:43;18.40;99.90
13354;DHT22;6746;50.892;4.064;2023-04-30T09:58:11;18.60;99.90
13354;DHT22;6746;50.892;4.064;2023-04-30T10:00:40;18.90;99.90
13354;DHT22;6746;50.892;4.064;2023-04-30T10:03:09;18.80;99.90
13354;DHT22;6746;50.892;4.064;2023-04-30T10:05:47;18.80;99.90
13354;DHT22;6746;50.892;4.064;2023-04-30T10:08:26;18.70;99.90
13354;DHT22;6746;50.892;4.064;2023-04-30T10:10:57;18.70;99.90
13354;DHT22;6746;50.892;4.064;2023-04-30T10:13:27;18.80;99.90
13354;DHT22;6746;50.892;4.064;2023-04-30T10:15:55;18.80;99.90
13354;DHT22;6746;50.892;4.064;2023-04-30T10:18:33;18.90;99.90
13354;DHT22;6746;50.892;4.064;2023-04-30T10:21:04;18.90;99.90
13354;DHT22;6746;50.892;4.064;2023-04-30T10:23:32;18.90;99.90
13354;DHT22;6746;50.892;4.064;2023-04-30T10:26:11;18.90;99.90
13354;DHT22;6746;50.892;4.064;2023-04-30T10:28:57;19.00;99.90
13354;DHT22;6746;50.892;4.064;2023-04-30T10:31:40;19.00;99.90
13354;DHT22;6746;50.892;4.064;2023-04-30T10:37:30;18.90;99.90
13354;DHT22;6746;50.892;4.064;2023-04-30T10:40:08;18.80;99.90
13354;DHT22;6746;50.892;4.064;2023-04-30T10:42:55;18.90;99.90
13354;DHT22;6746;50.892;4.064;2023-04-30T10:45:37;18.90;99.90
13354;DHT22;6746;50.892;4.064;2023-04-30T10:48:15;19.10;99.90
13354;DHT22;6746;50.892;4.064;2023-04-30T10:50:56;19.10;99.90
13354;DHT22;6746;50.892;4.064;2023-04-30T10:53:35;19.10;99.90
13354;DHT22;6746;50.892;4.064;2023-04-30T10:56:07;19.20;99.90
13354;DHT22;6746;50.892;4.064;2023-04-30T10:58:36;19.20;99.90
13354;DHT22;6746;50.892;4.064;2023-04-30T11:01:13;19.10;99.90
13354;DHT22;6746;50.892;4.064;2023-04-30T11:03:41;18.90;99.90
13354;DHT22;6746;50.892;4.064;2023-04-30T11:06:21;18.90;99.90
13354;DHT22;6746;50.892;4.064;2023-04-30T11:08:48;19.00;99.90
13354;DHT22;6746;50.892;4.064;2023-04-30T11:11:17;18.90;99.90
13354;DHT22;6746;50.892;4.064;2023-04-30T11:13:57;19.10;99.90
13354;DHT22;6746;50.892;4.064;2023-04-30T11:16:29;19.00;99.90
13354;DHT22;6746;50.892;4.064;2023-04-30T11:19:10;19.10;99.90
13354;DHT22;6746;50.892;4.064;2023-04-30T11:21:43;19.10;99.90
13354;DHT22;6746;50.892;4.064;2023-04-30T11:24:10;19.10;99.90
13354;DHT22;6746;50.892;4.064;2023-04-30T11:27:02;19.30;99.90
13354;DHT22;6746;50.892;4.064;2023-04-30T11:29:34;19.40;99.90
13354;DHT22;6746;50.892;4.064;2023-04-30T11:32:13;19.50;99.90
13354;DHT22;6746;50.892;4.064;2023-04-30T11:34:51;19.80;99.90
13354;DHT22;6746;50.892;4.064;2023-04-30T11:37:30;19.70;99.90
13354;DHT22;6746;50.892;4.064;2023-04-30T11:40:15;19.90;99.90
13354;DHT22;6746;50.892;4.064;2023-04-30T11:42:44;20.00;99.90
13354;DHT22;6746;50.892;4.064;2023-04-30T11:45:14;20.10;99.90
13354;DHT22;6746;50.892;4.064;2023-04-30T11:47:52;20.00;99.90
13354;DHT22;6746;50.892;4.064;2023-04-30T11:50:31;19.70;99.90
13354;DHT22;6746;50.892;4.064;2023-04-30T11:53:08;19.70;99.90
13354;DHT22;6746;50.892;4.064;2023-04-30T11:55:46;19.80;99.90
13354;DHT22;6746;50.892;4.064;2023-04-30T11:58:24;20.00;99.90
13354;DHT22;6746;50.892;4.064;2023-04-30T12:01:03;20.20;99.90
13354;DHT22;6746;50.892;4.064;2023-04-30T12:06:22;19.50;99.90
13354;DHT22;6746;50.892;4.064;2023-04-30T12:09:00;19.30;99.90
13354;DHT22;6746;50.892;4.064;2023-04-30T12:11:48;19.40;99.90
13354;DHT22;6746;50.892;4.064;2023-04-30T12:14:25;19.40;99.90
13354;DHT22;6746;50.892;4.064;2023-04-30T12:17:04;19.40;99.90
13354;DHT22;6746;50.892;4.064;2023-04-30T12:19:42;19.80;99.90
13354;DHT22;6746;50.892;4.064;2023-04-30T12:22:20;20.00;99.90
13354;DHT22;6746;50.892;4.064;2023-04-30T12:25:11;20.30;99.90
13354;DHT22;6746;50.892;4.064;2023-04-30T12:27:45;20.30;99.90
13354;DHT22;6746;50.892;4.064;2023-04-30T12:30:13;20.60;99.90
13354;DHT22;6746;50.892;4.064;2023-04-30T12:32:52;20.60;99.90
13354;DHT22;6746;50.892;4.064;2023-04-30T12:35:30;20.50;99.90
13354;DHT22;6746;50.892;4.064;2023-04-30T12:38:08;20.40;99.90
13354;DHT22;6746;50.892;4.064;2023-04-30T12:40:47;20.30;99.90
13354;DHT22;6746;50.892;4.064;2023-04-30T12:43:25;20.20;99.90
13354;DHT22;6746;50.892;4.064;2023-04-30T12:46:01;20.20;99.90
13354;DHT22;6746;50.892;4.064;2023-04-30T12:48:30;19.90;99.90
13354;DHT22;6746;50.892;4.064;2023-04-30T12:51:06;19.90;99.90
13354;DHT22;6746;50.892;4.064;2023-04-30T12:53:43;19.80;99.90
13354;DHT22;6746;50.892;4.064;2023-04-30T12:56:23;20.10;99.90
13354;DHT22;6746;50.892;4.064;2023-04-30T12:58:57;20.30;99.90
13354;DHT22;6746;50.892;4.064;2023-04-30T13:01:26;20.00;99.90
13354;DHT22;6746;50.892;4.064;2023-04-30T13:04:13;20.10;99.90
13354;DHT22;6746;50.892;4.064;2023-04-30T13:06:45;20.30;99.90
13354;DHT22;6746;50.892;4.064;2023-04-30T13:09:13;20.50;99.90
13354;DHT22;6746;50.892;4.064;2023-04-30T13:11:52;20.60;99.90
13354;DHT22;6746;50.892;4.064;2023-04-30T13:14:23;20.40;99.90
13354;DHT22;6746;50.892;4.064;2023-04-30T13:16:52;20.50;99.90
13354;DHT22;6746;50.892;4.064;2023-04-30T13:19:21;20.70;99.90
13354;DHT22;6746;50.892;4.064;2023-04-30T13:21:50;20.80;99.90
13354;DHT22;6746;50.892;4.064;2023-04-30T13:24:29;20.60;99.90
13354;DHT22;6746;50.892;4.064;2023-04-30T13:27:07;20.30;99.90
13354;DHT22;6746;50.892;4.064;2023-04-30T13:29:45;20.10;99.90
13354;DHT22;6746;50.892;4.064;2023-04-30T13:32:22;19.90;99.90
13354;DHT22;6746;50.892;4.064;2023-04-30T13:34:50;19.90;99.90
13354;DHT22;6746;50.892;4.064;2023-04-30T13:37:29;19.90;99.90
13354;DHT22;6746;50.892;4.064;2023-04-30T13:40:10;20.10;99.90
13354;DHT22;6746;50.892;4.064;2023-04-30T13:42:43;20.00;99.90
13354;DHT22;6746;50.892;4.064;2023-04-30T13:45:21;20.10;99.90
13354;DHT22;6746;50.892;4.064;2023-04-30T13:48:00;20.10;99.90
13354;DHT22;6746;50.892;4.064;2023-04-30T13:50:38;20.10;99.90
13354;DHT22;6746;50.892;4.064;2023-04-30T13:53:16;20.30;99.90
13354;DHT22;6746;50.892;4.064;2023-04-30T13:55:54;20.50;99.90
13354;DHT22;6746;50.892;4.064;2023-04-30T13:58:33;20.70;99.90
13354;DHT22;6746;50.892;4.064;2023-04-30T14:01:04;20.80;99.90
13354;DHT22;6746;50.892;4.064;2023-04-30T14:03:33;21.00;99.90
13354;DHT22;6746;50.892;4.064;2023-04-30T14:06:05;20.90;99.90
13354;DHT22;6746;50.892;4.064;2023-04-30T14:08:34;20.80;99.90
13354;DHT22;6746;50.892;4.064;2023-04-30T14:11:08;20.70;99.90
13354;DHT22;6746;50.892;4.064;2023-04-30T14:13:37;20.60;99.90
13354;DHT22;6746;50.892;4.064;2023-04-30T14:16:15;20.50;99.90
13354;DHT22;6746;50.892;4.064;2023-04-30T14:18:44;20.40;99.90
13354;DHT22;6746;50.892;4.064;2023-04-30T14:21:12;20.60;99.90
13354;DHT22;6746;50.892;4.064;2023-04-30T14:23:51;20.40;99.90
13354;DHT22;6746;50.892;4.064;2023-04-30T14:26:29;20.30;99.90
13354;DHT22;6746;50.892;4.064;2023-04-30T14:29:07;20.30;99.90
13354;DHT22;6746;50.892;4.064;2023-04-30T14:31:45;20.40;99.90
13354;DHT22;6746;50.892;4.064;2023-04-30T14:34:13;20.40;99.90
13354;DHT22;6746;50.892;4.064;2023-04-30T14:36:44;20.40;99.90
13354;DHT22;6746;50.892;4.064;2023-04-30T14:39:23;20.30;99.90
13354;DHT22;6746;50.892;4.064;2023-04-30T14:42:01;20.10;99.90
13354;DHT22;6746;50.892;4.064;2023-04-30T14:44:39;20.10;99.90
13354;DHT22;6746;50.892;4.064;2023-04-30T14:47:17;20.20;99.90
13354;DHT22;6746;50.892;4.064;2023-04-30T14:49:56;20.30;99.90
13354;DHT22;6746;50.892;4.064;2023-04-30T14:52:34;20.30;99.90
13354;DHT22;6746;50.892;4.064;2023-04-30T14:55:10;20.30;99.90
13354;DHT22;6746;50.892;4.064;2023-04-30T14:57:39;20.60;99.90
13354;DHT22;6746;50.892;4.064;2023-04-30T15:00:27;20.60;99.90
13354;DHT22;6746;50.892;4.064;2023-04-30T15:03:05;20.60;99.90
13354;DHT22;6746;50.892;4.064;2023-04-30T15:05:43;20.50;99.90
13354;DHT22;6746;50.892;4.064;2023-04-30T15:08:22;20.70;99.90
13354;DHT22;6746;50.892;4.064;2023-04-30T15:11:00;20.80;99.90
13354;DHT22;6746;50.892;4.064;2023-04-30T15:13:38;21.00;99.90
13354;DHT22;6746;50.892;4.064;2023-04-30T15:16:16;21.20;99.90
13354;DHT22;6746;50.892;4.064;2023-04-30T15:18:55;21.20;99.90
13354;DHT22;6746;50.892;4.064;2023-04-30T15:21:39;20.90;99.90
13354;DHT22;6746;50.892;4.064;2023-04-30T15:24:18;20.70;99.90
13354;DHT22;6746;50.892;4.064;2023-04-30T15:26:56;20.70;99.90
13354;DHT22;6746;50.892;4.064;2023-04-30T15:29:34;20.60;99.90
13354;DHT22;6746;50.892;4.064;2023-04-30T15:32:12;20.50;99.90
13354;DHT22;6746;50.892;4.064;2023-04-30T15:34:50;20.50;99.90
13354;DHT22;6746;50.892;4.064;2023-04-30T15:37:28;20.60;99.90
13354;DHT22;6746;50.892;4.064;2023-04-30T15:39:57;20.60;99.90
13354;DHT22;6746;50.892;4.064;2023-04-30T15:42:36;20.70;99.90
13354;DHT22;6746;50.892;4.064;2023-04-30T15:45:14;20.70;99.90
13354;DHT22;6746;50.892;4.064;2023-04-30T15:47:52;20.60;99.90
13354;DHT22;6746;50.892;4.064;2023-04-30T15:50:21;20.30;99.90
13354;DHT22;6746;50.892;4.064;2023-04-30T15:52:50;20.40;99.90
13354;DHT22;6746;50.892;4.064;2023-04-30T15:55:28;20.40;99.90
13354;DHT22;6746;50.892;4.064;2023-04-30T15:58:07;20.40;99.90
13354;DHT22;6746;50.892;4.064;2023-04-30T16:00:45;20.30;99.90
13354;DHT22;6746;50.892;4.064;2023-04-30T16:03:23;20.40;99.90
13354;DHT22;6746;50.892;4.064;2023-04-30T16:06:01;20.30;99.90
13354;DHT22;6746;50.892;4.064;2023-04-30T16:08:40;20.30;99.90
13354;DHT22;6746;50.892;4.064;2023-04-30T16:11:19;20.20;99.90
13354;DHT22;6746;50.892;4.064;2023-04-30T16:13:56;20.40;99.90
13354;DHT22;6746;50.892;4.064;2023-04-30T16:16:44;20.50;99.90
13354;DHT22;6746;50.892;4.064;2023-04-30T16:19:23;20.40;99.90
13354;DHT22;6746;50.892;4.064;2023-04-30T16:22:01;20.40;99.90
13354;DHT22;6746;50.892;4.064;2023-04-30T16:24:39;20.40;99.90
13354;DHT22;6746;50.892;4.064;2023-04-30T16:27:18;20.30;99.90
13354;DHT22;6746;50.892;4.064;2023-04-30T16:29:56;20.20;99.90
13354;DHT22;6746;50.892;4.064;2023-04-30T16:32:32;20.20;99.90
13354;DHT22;6746;50.892;4.064;2023-04-30T16:35:01;20.30;99.90
13354;DHT22;6746;50.892;4.064;2023-04-30T16:37:49;20.40;99.90
13354;DHT22;6746;50.892;4.064;2023-04-30T16:40:28;20.50;99.90
13354;DHT22;6746;50.892;4.064;2023-04-30T16:43:06;20.30;99.90
13354;DHT22;6746;50.892;4.064;2023-04-30T16:45:44;20.30;99.90
13354;DHT22;6746;50.892;4.064;2023-04-30T16:48:22;20.30;99.90
13354;DHT22;6746;50.892;4.064;2023-04-30T16:51:01;20.40;99.90
13354;DHT22;6746;50.892;4.064;2023-04-30T16:53:39;20.60;99.90
13354;DHT22;6746;50.892;4.064;2023-04-30T16:56:17;20.80;99.90
13354;DHT22;6746;50.892;4.064;2023-04-30T16:59:05;20.80;99.90
13354;DHT22;6746;50.892;4.064;2023-04-30T17:01:43;20.80;99.90
13354;DHT22;6746;50.892;4.064;2023-04-30T17:04:12;20.60;99.90
13354;DHT22;6746;50.892;4.064;2023-04-30T17:06:40;20.60;99.90
13354;DHT22;6746;50.892;4.064;2023-04-30T17:09:19;20.40;99.90
13354;DHT22;6746;50.892;4.064;2023-04-30T17:11:57;20.40;99.90
13354;DHT22;6746;50.892;4.064;2023-04-30T17:14:35;20.10;99.90